createdAt,value
2023-03-23T15:57:56.516Z,96388.41
2023-03-23T16:00:26.002Z,96387.91
2023-03-23T16:03:04.838Z,96382.84
2023-03-23T16:05:31.394Z,96394.44
2023-03-23T16:07:58.567Z,96391.94
2023-03-23T16:10:26.564Z,96394.13
2023-03-23T16:12:53.405Z,96387.47
2023-03-23T16:15:20.786Z,96380.56
2023-03-23T16:17:47.732Z,96391.13
2023-03-23T16:20:20.130Z,96381.50
2023-03-23T16:22:47.543Z,96395.09
2023-03-23T16:25:15.250Z,96379.94
2023-03-23T16:27:42.760Z,96388.63
2023-03-23T16:30:26.485Z,96391.38
2023-03-23T16:32:54.894Z,96389.72
2023-03-23T16:35:23.611Z,96391.91
2023-03-23T16:38:08.346Z,96370.53
2023-03-23T16:40:38.562Z,96386.09
2023-03-23T16:43:08.534Z,96375.50
2023-03-23T16:45:36.885Z,96369.25
2023-03-23T16:48:03.351Z,96377.22
2023-03-23T16:50:31.902Z,96358.78
2023-03-23T16:52:58.970Z,96363.44
2023-03-23T16:55:26.992Z,96367.13
2023-03-23T16:58:00.985Z,96373.09
2023-03-23T17:00:36.124Z,96378.19
2023-03-23T17:03:02.566Z,96367.81
2023-03-23T17:05:29.657Z,96367.56
2023-03-23T17:07:56.592Z,96377.69
2023-03-23T17:10:25.252Z,96374.97
2023-03-23T17:12:51.585Z,96361.09
2023-03-23T17:15:18.101Z,96371.00
2023-03-23T17:17:44.810Z,96379.53
2023-03-23T17:20:12.231Z,96367.56
2023-03-23T17:22:39.612Z,96373.06
2023-03-23T17:25:08.279Z,96383.78
2023-03-23T17:27:35.696Z,96374.91
2023-03-23T17:30:04.091Z,96368.19
2023-03-23T17:32:30.475Z,96370.28
2023-03-23T17:34:57.098Z,96371.03
2023-03-23T17:37:23.462Z,96381.00
2023-03-23T17:39:49.840Z,96373.31
2023-03-23T17:42:16.440Z,96388.19
2023-03-23T17:44:42.809Z,96364.66
2023-03-23T17:47:09.250Z,96378.63
2023-03-23T17:49:36.041Z,96374.75
2023-03-23T17:52:02.666Z,96382.41
2023-03-23T17:54:30.906Z,96378.41
2023-03-23T17:56:58.674Z,96378.53
2023-03-23T17:59:25.971Z,96370.28
2023-03-23T18:01:52.909Z,96386.44
2023-03-23T18:04:19.607Z,96383.16
2023-03-23T18:06:46.430Z,96385.13
2023-03-23T18:09:12.868Z,96383.28
2023-03-23T18:11:39.213Z,96384.38
2023-03-23T18:14:05.597Z,96384.03
2023-03-23T18:16:32.116Z,96384.78
2023-03-23T18:18:58.505Z,96386.84
2023-03-23T18:21:25.990Z,96377.75
2023-03-23T18:23:59.161Z,96369.06
2023-03-23T18:26:26.898Z,96378.69
2023-03-23T18:28:53.280Z,96366.13
2023-03-23T18:31:20.845Z,96377.38
2023-03-23T18:33:49.422Z,96371.31
2023-03-23T18:36:19.599Z,96370.41
2023-03-23T18:38:46.455Z,96361.84
2023-03-23T18:41:13.972Z,96376.47
2023-03-23T18:43:40.936Z,96377.28
2023-03-23T18:46:07.881Z,96380.50
2023-03-23T18:48:35.766Z,96370.00
2023-03-23T18:51:02.563Z,96368.81
2023-03-23T18:53:29.155Z,96381.91
2023-03-23T18:56:05.709Z,96382.22
2023-03-23T18:58:32.716Z,96374.50
2023-03-23T19:01:03.003Z,96385.47
2023-03-23T19:03:29.494Z,96379.41
2023-03-23T19:05:59.334Z,96372.13
2023-03-23T19:08:27.364Z,96360.81
2023-03-23T19:11:01.464Z,96375.69
2023-03-23T19:13:29.994Z,96353.31
2023-03-23T19:15:56.825Z,96365.03
2023-03-23T19:18:23.474Z,96361.91
2023-03-23T19:23:23.165Z,96365.22
2023-03-23T19:25:50.228Z,96364.91
2023-03-23T19:30:48.125Z,96352.28
2023-03-23T19:33:15.466Z,96357.50
2023-03-23T19:35:42.752Z,96342.00
2023-03-23T19:38:11.110Z,96345.03
2023-03-23T19:40:42.036Z,96331.63
2023-03-23T19:43:09.285Z,96339.22
2023-03-23T19:45:36.329Z,96331.09
2023-03-23T19:48:02.845Z,96332.19
2023-03-23T19:50:29.209Z,96327.63
2023-03-23T19:52:58.690Z,96334.69
2023-03-23T19:55:26.492Z,96328.00
2023-03-23T19:57:52.846Z,96322.97
2023-03-23T20:00:19.441Z,96325.69
2023-03-23T20:02:45.889Z,96311.47
2023-03-23T20:05:12.668Z,96313.69
2023-03-23T20:07:41.168Z,96310.88
2023-03-23T20:10:09.129Z,96308.28
2023-03-23T20:12:35.955Z,96300.94
2023-03-23T20:15:03.480Z,96295.97
2023-03-23T20:17:30.134Z,96295.69
2023-03-23T20:19:56.647Z,96295.38
2023-03-23T20:22:23.013Z,96282.50
2023-03-23T20:24:49.509Z,96285.22
2023-03-23T20:27:16.593Z,96283.56
2023-03-23T20:29:43.043Z,96290.09
2023-03-23T20:32:09.520Z,96292.13
2023-03-23T20:34:36.248Z,96298.31
2023-03-23T20:37:03.133Z,96291.81
2023-03-23T20:39:31.604Z,96285.66
2023-03-23T20:42:01.881Z,96286.41
2023-03-23T20:44:31.112Z,96279.56
2023-03-23T20:46:58.153Z,96283.47
2023-03-23T20:49:24.908Z,96271.78
2023-03-23T20:51:51.929Z,96288.56
2023-03-23T20:54:19.630Z,96274.59
2023-03-23T20:56:46.861Z,96272.75
2023-03-23T20:59:14.026Z,96272.22
2023-03-23T21:01:40.503Z,96267.56
2023-03-23T21:04:14.719Z,96280.34
2023-03-23T21:06:42.739Z,96276.84
2023-03-23T21:09:09.501Z,96269.94
2023-03-23T21:11:35.856Z,96288.56
2023-03-23T21:14:03.317Z,96279.31
2023-03-23T21:16:29.868Z,96271.91
2023-03-23T21:18:56.650Z,96284.91
2023-03-23T21:21:23.692Z,96294.63
2023-03-23T21:23:52.773Z,96286.94
2023-03-23T21:26:22.552Z,96276.84
2023-03-23T21:28:50.713Z,96287.16
2023-03-23T21:31:18.159Z,96265.91
2023-03-23T21:33:44.611Z,96269.47
2023-03-23T21:36:11.603Z,96272.00
2023-03-23T21:38:39.767Z,96267.00
2023-03-23T21:41:09.327Z,96258.31
2023-03-23T21:43:36.045Z,96265.69
2023-03-23T21:46:05.338Z,96263.44
2023-03-23T21:48:32.968Z,96244.47
2023-03-23T21:51:06.605Z,96258.78
2023-03-23T21:53:36.649Z,96251.44
2023-03-23T21:56:05.416Z,96250.97
2023-03-23T21:58:32.663Z,96258.25
2023-03-23T22:01:01.133Z,96254.75
2023-03-23T22:03:32.094Z,96255.19
2023-03-23T22:06:05.185Z,96262.78
2023-03-23T22:08:31.555Z,96251.19
2023-03-23T22:11:07.793Z,96258.63
2023-03-23T22:13:37.062Z,96255.38
2023-03-23T22:16:06.742Z,96248.56
2023-03-23T22:18:34.646Z,96254.84
2023-03-23T22:21:01.137Z,96250.81
2023-03-23T22:23:28.033Z,96251.28
2023-03-23T22:25:56.604Z,96243.66
2023-03-23T22:28:26.341Z,96255.09
2023-03-23T22:30:58.987Z,96246.75
2023-03-23T22:33:25.355Z,96245.56
2023-03-23T22:35:51.937Z,96236.78
2023-03-23T22:38:18.317Z,96231.47
2023-03-23T22:40:44.984Z,96220.97
2023-03-23T22:43:11.515Z,96214.34
2023-03-23T22:45:37.902Z,96218.13
2023-03-23T22:48:07.667Z,96199.31
2023-03-23T22:50:34.190Z,96214.16
2023-03-23T22:53:00.779Z,96208.53
2023-03-23T22:55:27.146Z,96193.28
2023-03-23T22:57:53.517Z,96191.13
2023-03-23T23:00:20.663Z,96193.41
2023-03-23T23:02:47.133Z,96181.16
2023-03-23T23:05:14.298Z,96180.84
2023-03-23T23:07:40.727Z,96165.25
2023-03-23T23:10:07.754Z,96164.84
2023-03-23T23:12:35.159Z,96168.31
2023-03-23T23:15:03.000Z,96184.91
2023-03-23T23:17:31.737Z,96181.97
2023-03-23T23:19:59.471Z,96168.25
2023-03-23T23:22:26.427Z,96157.19
2023-03-23T23:24:52.842Z,96148.75
2023-03-23T23:27:19.536Z,96131.13
2023-03-23T23:29:45.923Z,96141.06
2023-03-23T23:32:12.468Z,96127.00
2023-03-23T23:34:39.011Z,96113.22
2023-03-23T23:37:05.679Z,96111.47
2023-03-23T23:39:32.064Z,96111.06
2023-03-23T23:41:58.479Z,96112.25
2023-03-23T23:44:24.881Z,96124.16
2023-03-23T23:46:51.387Z,96104.91
2023-03-23T23:49:17.768Z,96109.56
2023-03-23T23:51:44.678Z,96120.69
2023-03-23T23:54:11.152Z,96115.16
2023-03-23T23:56:37.568Z,96130.88
2023-03-23T23:59:04.030Z,96140.50
